»·PEaware :: BAW001 EGLL-KJFK

BAW001 :: EGLL-KJFK

FLIGHT INFORMATION

Flight Status: Arrived
Operator:
British Airways
More flights by this operator :: More flights under this callsign
Pilot: Matthew M. (8235)
Aircraft: AÉROSPATIALE-BAC CONCORDE
(CONC)
More flights by this aircraft type
Origin: EGLL Heathrow
United Kingdom
Destination: KJFK Kennedy Intl
United States
More flights between these airports :: More routes between these airports
Route: CPT Q63 MALBY MERLY LESLU 5041N01500W NATSM 4700N05000W 4246N06500W 42N067W SM2A KENDA LINND OWENZ CAMRN
File this flight plan on PilotEdge
Remarks: IFP / RVSMVIOLATION
Altitude:
(Current/Filed)
50,000ft
Speed:
(Current/Filed)
999kts
Departed: 26-Jun-20 05:00 AM
Arrived: 26-Jun-20 08:33 AM
Distance/Time
Traveled:
2989nm/3:33
Distance/Time
To Go:
Arrived

Flight Plot

Page will automatically refresh every two minutes.


Map Options




Map Legend


Flown Route
Filed Route
Departure Airport
Arrival Airport
Navaid (VOR, NDB)
Fix

Horizontal Profiles

Position Reports

Time Latitude Longitude Heading Altitude Ground
Speed
26-Jun-20 04:29 51.460541 -0.444902 293 89ft 0kts
26-Jun-20 04:31 51.460541 -0.444901 293 89ft 0kts
26-Jun-20 04:32 51.460541 -0.444902 293 89ft 0kts
26-Jun-20 04:33 51.460541 -0.444902 293 89ft 0kts
26-Jun-20 04:34 51.460541 -0.444902 293 89ft 0kts
26-Jun-20 04:35 51.460541 -0.444902 293 89ft 0kts
26-Jun-20 04:36 51.460541 -0.444902 293 89ft 0kts
26-Jun-20 04:37 51.460541 -0.444902 293 89ft 0kts
26-Jun-20 04:38 51.460541 -0.444902 293 89ft 0kts
26-Jun-20 04:39 51.460541 -0.444902 293 89ft 0kts
26-Jun-20 04:40 51.460541 -0.444902 293 89ft 0kts
26-Jun-20 04:41 51.460541 -0.444902 293 89ft 0kts
26-Jun-20 04:42 51.460541 -0.444902 293 89ft 0kts
26-Jun-20 04:43 51.460541 -0.444902 293 89ft 0kts
26-Jun-20 04:44 51.460541 -0.444902 293 89ft 0kts
26-Jun-20 04:45 51.460541 -0.444902 293 89ft 0kts
26-Jun-20 04:46 51.460541 -0.444902 293 89ft 0kts
26-Jun-20 04:47 51.460541 -0.444902 293 89ft 0kts
26-Jun-20 04:48 51.460541 -0.444902 293 89ft 0kts
26-Jun-20 04:49 51.460541 -0.444902 293 89ft 0kts
26-Jun-20 04:49 51.460541 -0.444902 293 89ft 0kts
26-Jun-20 04:51 51.460541 -0.444902 293 89ft 0kts
26-Jun-20 04:51 51.460541 -0.444901 293 89ft 0kts
26-Jun-20 04:52 51.460541 -0.444901 293 89ft 0kts
26-Jun-20 04:54 51.460340 -0.444144 293 90ft 2kts
26-Jun-20 04:54 51.460178 -0.443537 293 90ft 0kts
26-Jun-20 04:56 51.460178 -0.443537 293 90ft 0kts
26-Jun-20 04:56 51.460178 -0.443537 293 90ft 0kts
26-Jun-20 04:57 51.462536 -0.442360 23 87ft 15kts
26-Jun-20 04:58 51.463049 -0.435387 18 84ft 15kts
26-Jun-20 04:59 51.464921 -0.440691 268 87ft 104kts
26-Jun-20 05:00 51.465804 -0.532519 270 2040ft 265kts
26-Jun-20 05:01 51.460761 -0.645486 256 4494ft 269kts
26-Jun-20 05:02 51.458941 -0.762406 268 6394ft 279kts
26-Jun-20 05:03 51.461261 -0.879020 268 8701ft 284kts
26-Jun-20 05:04 51.469767 -1.001067 277 10952ft 319kts
26-Jun-20 05:05 51.485512 -1.158261 275 13385ft 422kts
26-Jun-20 05:06 51.506089 -1.335872 277 16465ft 454kts
26-Jun-20 05:07 51.528436 -1.517171 276 20302ft 482kts
26-Jun-20 05:08 51.552932 -1.718277 275 23590ft 521kts
26-Jun-20 05:09 51.583524 -1.975492 275 25919ft 586kts
26-Jun-20 05:10 51.573582 -2.193711 254 27472ft 575kts
26-Jun-20 05:11 51.549843 -2.400151 253 27862ft 567kts
26-Jun-20 05:12 51.524282 -2.613628 253 27884ft 563kts
26-Jun-20 05:13 51.498518 -2.822402 252 27882ft 563kts
26-Jun-20 05:14 51.470546 -3.041855 254 27881ft 556kts
26-Jun-20 05:15 51.441548 -3.265535 255 27882ft 555kts
26-Jun-20 05:16 51.414881 -3.468838 255 27880ft 556kts
26-Jun-20 05:17 51.388035 -3.670060 254 27882ft 554kts
26-Jun-20 05:18 51.357240 -3.896801 254 27882ft 555kts
26-Jun-20 05:19 51.325152 -4.129133 254 27881ft 554kts
26-Jun-20 05:20 51.290815 -4.373519 254 27884ft 556kts
26-Jun-20 05:21 51.260815 -4.583675 254 32580ft 611kts
26-Jun-20 05:22 51.227167 -4.815343 253 35695ft 658kts
26-Jun-20 05:23 51.203233 -4.981955 257 37407ft 689kts
26-Jun-20 05:24 51.188492 -5.226087 261 39345ft 727kts
26-Jun-20 05:25 51.174036 -5.473187 261 40669ft 765kts
26-Jun-20 05:26 51.160455 -5.699009 260 41671ft 826kts
26-Jun-20 05:27 51.140672 -6.017321 261 43752ft 966kts
26-Jun-20 05:28 51.115080 -6.414689 261 46825ft 1027kts
26-Jun-20 05:29 51.087624 -6.820560 260 49463ft 1058kts
26-Jun-20 05:30 51.059492 -7.214265 261 50649ft 1092kts
26-Jun-20 05:31 51.031734 -7.586646 261 50715ft 1128kts
26-Jun-20 05:32 51.009185 -7.877350 260 50739ft 1152kts
26-Jun-20 05:33 50.994474 -8.297125 266 50885ft 1166kts
26-Jun-20 05:34 50.986537 -8.716680 266 50918ft 1160kts
26-Jun-20 05:35 50.976877 -9.152403 266 50942ft 1157kts
26-Jun-20 05:36 50.965293 -9.597984 266 50971ft 1155kts
26-Jun-20 05:37 50.951556 -10.050351 265 51002ft 1154kts
26-Jun-20 05:38 50.935852 -10.505619 265 51030ft 1152kts
26-Jun-20 05:39 50.917945 -10.968434 265 51062ft 1148kts
26-Jun-20 05:40 50.897302 -11.451051 265 51099ft 1143kts
26-Jun-20 05:41 50.875836 -11.909648 264 51165ft 1141kts
26-Jun-20 05:42 50.852333 -12.372947 264 51227ft 1142kts
26-Jun-20 05:43 50.827057 -12.834147 264 51288ft 1142kts
26-Jun-20 05:44 50.799032 -13.304910 265 51342ft 1124kts
26-Jun-20 05:45 50.773770 -13.710889 264 51374ft 1125kts
26-Jun-20 05:46 50.747084 -14.115220 264 51425ft 1126kts
26-Jun-20 05:47 50.714470 -14.581546 264 51464ft 1125kts
26-Jun-20 05:48 50.686435 -15.047364 274 51661ft 1105kts
26-Jun-20 05:49 50.708552 -15.509229 276 51850ft 1092kts
26-Jun-20 05:50 50.728784 -15.959554 275 51879ft 1093kts
26-Jun-20 05:51 50.746674 -16.396193 275 51910ft 1095kts
26-Jun-20 05:52 50.763769 -16.852236 274 51949ft 1093kts
26-Jun-20 05:53 50.778925 -17.310443 275 51978ft 1071kts
26-Jun-20 05:54 50.792305 -17.759328 274 51974ft 1071kts
26-Jun-20 05:55 50.804023 -18.213596 274 52006ft 1073kts
26-Jun-20 05:56 50.813812 -18.661139 274 51987ft 1070kts
26-Jun-20 05:57 50.821774 -19.103595 274 52032ft 1073kts
26-Jun-20 05:58 50.828230 -19.554990 273 52032ft 1071kts
26-Jun-20 05:59 50.832931 -20.013157 273 52063ft 1072kts
26-Jun-20 06:00 50.836268 -20.461601 273 52070ft 1072kts
26-Jun-20 06:01 50.837882 -20.909945 272 52090ft 1072kts
26-Jun-20 06:02 50.837761 -21.359640 272 52107ft 1076kts
26-Jun-20 06:03 50.835937 -21.807361 271 52117ft 1076kts
26-Jun-20 06:04 50.832308 -22.266976 271 52144ft 1075kts
26-Jun-20 06:05 50.826750 -22.733586 271 52145ft 1076kts
26-Jun-20 06:06 50.819010 -23.224803 270 52187ft 1075kts
26-Jun-20 06:07 50.809006 -23.716772 269 52190ft 1076kts
26-Jun-20 06:08 50.796861 -24.213538 269 52237ft 1076kts
26-Jun-20 06:09 50.783765 -24.672459 269 52236ft 1076kts
26-Jun-20 06:10 50.768973 -25.129512 269 52289ft 1078kts
26-Jun-20 06:11 50.752370 -25.585919 268 52300ft 1079kts
26-Jun-20 06:12 50.733846 -26.044498 268 52349ft 1080kts
26-Jun-20 06:13 50.713462 -26.504661 268 52370ft 1080kts
26-Jun-20 06:14 50.693393 -26.921904 267 52408ft 1081kts
26-Jun-20 06:15 50.671733 -27.342658 266 52450ft 1083kts
26-Jun-20 06:16 50.647547 -27.777823 266 52481ft 1086kts
26-Jun-20 06:17 50.621952 -28.210065 266 52531ft 1086kts
26-Jun-20 06:18 50.595027 -28.637781 266 52548ft 1086kts
26-Jun-20 06:19 50.566665 -29.063862 265 52610ft 1093kts
26-Jun-20 06:20 50.533418 -29.534511 265 52644ft 1093kts
26-Jun-20 06:21 50.499162 -29.989669 264 52700ft 1096kts
26-Jun-20 06:22 50.461136 -30.467245 264 52743ft 1096kts
26-Jun-20 06:23 50.421307 -30.941193 263 52799ft 1096kts
26-Jun-20 06:24 50.378909 -31.422067 263 52851ft 1101kts
26-Jun-20 06:25 50.334341 -31.902319 262 52906ft 1101kts
26-Jun-20 06:26 50.288776 -32.372250 262 52962ft 1101kts
26-Jun-20 06:27 50.241240 -32.841993 262 53015ft 1101kts
26-Jun-20 06:28 50.192615 -33.304368 261 53076ft 1108kts
26-Jun-20 06:29 50.141528 -33.769984 260 53123ft 1108kts
26-Jun-20 06:30 50.088993 -34.231486 260 53189ft 1107kts
26-Jun-20 06:31 50.033478 -34.701695 260 53231ft 1107kts
26-Jun-20 06:32 49.976479 -35.167819 260 53306ft 1116kts
26-Jun-20 06:33 49.917028 -35.636966 260 53351ft 1115kts
26-Jun-20 06:34 49.856590 -36.098189 259 53414ft 1116kts
26-Jun-20 06:35 49.795530 -36.549576 259 53450ft 1115kts
26-Jun-20 06:37 49.732220 -37.003375 258 53505ft 1116kts
26-Jun-20 06:38 49.664696 -37.472758 258 53550ft 1119kts
26-Jun-20 06:39 49.596055 -37.935685 257 53603ft 1119kts
26-Jun-20 06:40 49.522807 -38.415203 257 53654ft 1119kts
26-Jun-20 06:41 49.450790 -38.873096 257 53706ft 1120kts
26-Jun-20 06:42 49.375050 -39.341578 256 53762ft 1122kts
26-Jun-20 06:43 49.297662 -39.806894 256 53809ft 1124kts
26-Jun-20 06:44 49.222600 -40.247116 256 53864ft 1122kts
26-Jun-20 06:45 49.145127 -40.691296 255 53906ft 1122kts
26-Jun-20 06:46 49.067288 -41.126722 255 53974ft 1133kts
26-Jun-20 06:47 48.985686 -41.572317 255 54029ft 1145kts
26-Jun-20 06:48 48.901466 -42.020948 254 54093ft 1150kts
26-Jun-20 06:49 48.818430 -42.453000 254 54141ft 1149kts
26-Jun-20 06:50 48.730052 -42.902486 253 54194ft 1149kts
26-Jun-20 06:51 48.642665 -43.337083 253 54246ft 1148kts
26-Jun-20 06:52 48.552229 -43.776828 252 54298ft 1149kts
26-Jun-20 06:52 48.470783 -44.164896 252 54349ft 1149kts
26-Jun-20 06:54 48.360817 -44.677413 252 54409ft 1149kts
26-Jun-20 06:55 48.262136 -45.126722 252 54472ft 1145kts
26-Jun-20 06:55 48.179839 -45.494236 252 54518ft 1145kts
26-Jun-20 06:57 48.063204 -46.004391 251 54588ft 1145kts
26-Jun-20 06:57 47.978628 -46.366928 251 54637ft 1145kts
26-Jun-20 06:59 47.862810 -46.853776 250 54700ft 1145kts
26-Jun-20 06:59 47.778827 -47.199483 250 54745ft 1144kts
26-Jun-20 07:00 47.673234 -47.625845 250 54792ft 1144kts
26-Jun-20 07:01 47.564577 -48.056841 249 54853ft 1144kts
26-Jun-20 07:02 47.456058 -48.480728 249 54905ft 1144kts
26-Jun-20 07:03 47.350534 -48.886160 249 54959ft 1144kts
26-Jun-20 07:04 47.240071 -49.303044 249 55015ft 1144kts
26-Jun-20 07:05 47.129449 -49.713481 248 55065ft 1144kts
26-Jun-20 07:06 47.019367 -50.111769 248 55128ft 1145kts
26-Jun-20 07:07 46.901227 -50.529036 248 55186ft 1153kts
26-Jun-20 07:08 46.790296 -50.913871 247 55236ft 1154kts
26-Jun-20 07:09 46.673006 -51.314030 247 55287ft 1153kts
26-Jun-20 07:10 46.556656 -51.704894 246 55334ft 1153kts
26-Jun-20 07:11 46.438735 -52.094863 246 55391ft 1154kts
26-Jun-20 07:12 46.322558 -52.473251 246 55442ft 1153kts
26-Jun-20 07:13 46.215622 -52.816621 246 55492ft 1154kts
26-Jun-20 07:14 46.111471 -53.204161 251 55684ft 1147kts
26-Jun-20 07:15 46.016868 -53.603153 251 55736ft 1145kts
26-Jun-20 07:16 45.933032 -53.950988 251 55795ft 1146kts
26-Jun-20 07:17 45.842577 -54.320399 251 55844ft 1145kts
26-Jun-20 07:18 45.739080 -54.735788 250 55886ft 1145kts
26-Jun-20 07:19 45.634870 -55.147011 250 55945ft 1137kts
26-Jun-20 07:20 45.536678 -55.527574 249 55992ft 1134kts
26-Jun-20 07:21 45.430286 -55.932715 249 56048ft 1135kts
26-Jun-20 07:22 45.324054 -56.330505 249 56099ft 1135kts
26-Jun-20 07:23 45.220177 -56.713163 248 56139ft 1134kts
26-Jun-20 07:24 45.112944 -57.102296 248 56190ft 1121kts
26-Jun-20 07:25 45.001744 -57.498736 248 56220ft 1127kts
26-Jun-20 07:26 44.892186 -57.883196 247 56256ft 1131kts
26-Jun-20 07:27 44.791631 -58.230993 247 56317ft 1131kts
26-Jun-20 07:28 44.681694 -58.605783 247 56367ft 1131kts
26-Jun-20 07:29 44.576293 -58.960156 246 56426ft 1126kts
26-Jun-20 07:30 44.474239 -59.298514 246 56474ft 1122kts
26-Jun-20 07:31 44.373543 -59.627828 246 56506ft 1122kts
26-Jun-20 07:32 44.264354 -59.981527 247 56556ft 1122kts
26-Jun-20 07:33 44.161532 -60.356177 248 56625ft 1123kts
26-Jun-20 07:34 44.057617 -60.730235 247 56649ft 1123kts
26-Jun-20 07:35 43.952992 -61.101595 247 56682ft 1116kts
26-Jun-20 07:36 43.840865 -61.493771 247 56722ft 1107kts
26-Jun-20 07:37 43.731053 -61.872434 246 56795ft 1108kts
26-Jun-20 07:38 43.630537 -62.213976 246 56857ft 1108kts
26-Jun-20 07:39 43.521130 -62.580474 246 56899ft 1107kts
26-Jun-20 07:40 43.411071 -62.943848 246 56954ft 1105kts
26-Jun-20 07:41 43.308345 -63.278836 245 56989ft 1093kts
26-Jun-20 07:42 43.199906 -63.627250 245 56997ft 1094kts
26-Jun-20 07:43 43.094387 -63.961979 244 57027ft 1094kts
26-Jun-20 07:44 42.984203 -64.307108 244 57035ft 1099kts
26-Jun-20 07:45 42.878051 -64.635452 245 57038ft 1112kts
26-Jun-20 07:46 42.761898 -64.986153 241 57138ft 1103kts
26-Jun-20 07:47 42.635148 -65.328919 241 57213ft 1099kts
26-Jun-20 07:48 42.512114 -65.656581 240 57248ft 1098kts
26-Jun-20 07:49 42.387938 -65.982976 240 57304ft 1099kts
26-Jun-20 07:50 42.255907 -66.325627 240 57334ft 1098kts
26-Jun-20 07:51 42.122378 -66.668016 240 57334ft 1098kts
26-Jun-20 07:52 41.995682 -66.968653 228 57516ft 1093kts
26-Jun-20 07:53 41.805797 -67.247740 224 57771ft 1095kts
26-Jun-20 07:54 41.606926 -67.527411 224 57848ft 1093kts
26-Jun-20 07:55 41.425391 -67.778217 223 57901ft 1092kts
26-Jun-20 07:56 41.255596 -68.010103 223 57936ft 1092kts
26-Jun-20 07:57 41.069971 -68.261088 223 57945ft 1092kts
26-Jun-20 07:58 40.883265 -68.511066 224 57938ft 1097kts
26-Jun-20 07:59 40.699729 -68.755007 223 58016ft 1097kts
26-Jun-20 08:00 40.520417 -68.991375 223 58079ft 1090kts
26-Jun-20 08:01 40.327413 -69.243611 223 58119ft 1078kts
26-Jun-20 08:02 40.131430 -69.497394 223 58123ft 1078kts
26-Jun-20 08:03 39.952712 -69.726934 222 58110ft 1078kts
26-Jun-20 08:04 39.764365 -69.967075 222 57450ft 1009kts
26-Jun-20 08:05 39.582092 -70.197583 222 56527ft 929kts
26-Jun-20 08:06 39.417874 -70.422684 237 54855ft 863kts
26-Jun-20 08:07 39.373210 -70.700088 265 51691ft 840kts
26-Jun-20 08:08 39.379333 -70.969188 268 46613ft 823kts
26-Jun-20 08:09 39.386841 -71.197573 269 43524ft 789kts
26-Jun-20 08:10 39.395877 -71.438019 269 40128ft 751kts
26-Jun-20 08:11 39.406387 -71.662989 276 37613ft 706kts
26-Jun-20 08:12 39.443123 -71.786691 289 36908ft 681kts
26-Jun-20 08:13 39.512036 -71.976222 290 35304ft 638kts
26-Jun-20 08:14 39.583204 -72.170246 290 32599ft 608kts
26-Jun-20 08:15 39.664258 -72.391770 290 30563ft 606kts
26-Jun-20 08:16 39.738041 -72.593992 291 29799ft 607kts
26-Jun-20 08:17 39.789086 -72.734275 290 29321ft 587kts
26-Jun-20 08:18 39.830022 -72.884115 279 28406ft 519kts
26-Jun-20 08:19 39.862251 -73.050022 281 27493ft 504kts
26-Jun-20 08:20 39.936964 -73.228136 326 25906ft 512kts
26-Jun-20 08:21 40.035241 -73.299822 328 24588ft 512kts
26-Jun-20 08:22 40.130515 -73.369460 325 22852ft 503kts
26-Jun-20 08:23 40.237268 -73.428690 337 17079ft 396kts
26-Jun-20 08:24 40.341305 -73.466328 347 10370ft 335kts
26-Jun-20 08:25 40.432924 -73.488736 347 5809ft 286kts
26-Jun-20 08:26 40.503952 -73.506869 347 3885ft 229kts
26-Jun-20 08:27 40.552285 -73.555085 300 3226ft 210kts
26-Jun-20 08:28 40.580517 -73.618964 300 2466ft 184kts
26-Jun-20 08:29 40.602117 -73.667275 299 1682ft 181kts
26-Jun-20 08:30 40.626399 -73.720913 299 733ft 167kts
26-Jun-20 08:31 40.649147 -73.771372 300 26ft 133kts
26-Jun-20 08:32 40.655170 -73.787395 138 25ft 13kts
26-Jun-20 08:33 40.651512 -73.784415 200 25ft 19kts
26-Jun-20 08:34 40.649194 -73.784382 75 25ft 0kts
26-Jun-20 08:35 40.649194 -73.784383 75 25ft 0kts

Navigation Log

Ident Type
Flight plan parsing failed, navigation log unavailable